createdAt,value
2018-11-20T00:01:56.034Z,3.50
2018-11-20T00:04:40.969Z,3.50
2018-11-20T00:10:42.786Z,3.50
2018-11-20T00:13:19.940Z,3.50
2018-11-20T00:18:53.782Z,3.50
2018-11-20T00:21:44.418Z,3.50
2018-11-20T00:24:50.252Z,3.50
2018-11-20T00:27:43.855Z,3.50
2018-11-20T00:30:31.418Z,3.50
2018-11-20T00:33:19.033Z,3.40
2018-11-20T00:38:55.263Z,3.50
2018-11-20T00:41:48.721Z,3.40
2018-11-20T00:44:35.220Z,3.40
2018-11-20T00:47:21.271Z,3.40
2018-11-20T00:53:02.018Z,3.30
2018-11-20T00:56:28.757Z,3.30
2018-11-20T00:59:22.157Z,3.30
2018-11-20T01:04:59.320Z,3.20
2018-11-20T01:10:38.089Z,3.10
2018-11-20T01:13:24.132Z,3.10
2018-11-20T01:16:11.658Z,3.00
2018-11-20T01:18:59.265Z,3.00
2018-11-20T01:21:45.673Z,3.00
2018-11-20T01:24:45.416Z,3.00
2018-11-20T01:27:28.209Z,3.00
2018-11-20T01:30:17.369Z,3.00
2018-11-20T01:33:19.934Z,2.90
2018-11-20T01:36:25.479Z,2.90
2018-11-20T01:39:01.647Z,2.90
2018-11-20T01:44:39.261Z,2.90
2018-11-20T01:47:32.769Z,2.90
2018-11-20T01:50:23.090Z,2.90
2018-11-20T01:53:16.614Z,2.90
2018-11-20T01:56:04.310Z,2.90
2018-11-20T02:01:34.839Z,2.90
2018-11-20T02:04:28.529Z,2.90
2018-11-20T02:07:28.687Z,2.90
2018-11-20T02:10:22.519Z,2.90
2018-11-20T02:13:55.089Z,2.90
2018-11-20T02:16:51.717Z,2.90
2018-11-20T02:25:26.013Z,2.90
2018-11-20T02:28:31.973Z,2.90
2018-11-20T02:31:28.275Z,2.80
2018-11-20T02:34:16.498Z,2.90
2018-11-20T02:37:04.108Z,2.90
2018-11-20T02:42:52.745Z,2.90
2018-11-20T02:45:42.987Z,2.90
2018-11-20T02:48:45.574Z,2.90
2018-11-20T03:00:10.803Z,2.90
2018-11-20T03:02:51.362Z,2.90
2018-11-20T03:05:37.232Z,2.90
2018-11-20T03:08:30.725Z,2.90
2018-11-20T03:11:24.084Z,2.90
2018-11-20T03:14:10.227Z,2.90
2018-11-20T03:17:15.930Z,3.00
2018-11-20T03:20:02.286Z,3.00
2018-11-20T03:22:48.541Z,3.00
2018-11-20T03:26:01.023Z,3.00
2018-11-20T03:28:54.400Z,3.00
2018-11-20T03:31:49.553Z,3.00
2018-11-20T03:34:35.996Z,3.00
2018-11-20T03:37:32.665Z,3.00
2018-11-20T03:40:20.273Z,3.10
2018-11-20T03:43:06.672Z,3.10
2018-11-20T03:45:54.259Z,3.10
2018-11-20T03:48:41.824Z,3.10
2018-11-20T03:51:35.164Z,3.20
2018-11-20T03:54:31.756Z,3.20
2018-11-20T03:57:10.409Z,3.20
2018-11-20T03:59:58.029Z,3.30
2018-11-20T04:02:49.621Z,3.30
2018-11-20T04:05:46.198Z,3.30
2018-11-20T04:13:30.888Z,3.40
2018-11-20T04:16:16.139Z,3.40
2018-11-20T04:19:01.883Z,3.40
2018-11-20T04:27:19.818Z,3.40
2018-11-20T04:33:01.102Z,3.50
2018-11-20T04:35:52.745Z,3.50
2018-11-20T04:38:45.143Z,3.40
2018-11-20T04:41:33.025Z,3.40
2018-11-20T04:44:19.860Z,3.40
2018-11-20T04:47:05.689Z,3.40
2018-11-20T04:49:52.529Z,3.40
2018-11-20T04:52:34.551Z,3.50
2018-11-20T04:55:21.386Z,3.40
2018-11-20T04:58:14.714Z,3.40
2018-11-20T05:01:13.469Z,3.40
2018-11-20T05:03:53.699Z,3.40
2018-11-20T05:06:39.179Z,3.40
2018-11-20T05:09:44.355Z,3.40
2018-11-20T05:12:29.853Z,3.40
2018-11-20T05:15:28.446Z,3.40
2018-11-20T05:18:16.013Z,3.40
2018-11-20T05:21:01.909Z,3.50
2018-11-20T05:26:34.038Z,3.50
2018-11-20T05:29:19.396Z,3.50
2018-11-20T05:32:06.214Z,3.50
2018-11-20T05:40:48.761Z,3.60
2018-11-20T05:43:47.479Z,3.50
2018-11-20T05:46:34.354Z,3.50
2018-11-20T05:52:05.212Z,3.50
2018-11-20T05:54:50.705Z,3.50
2018-11-20T05:57:36.220Z,3.60
2018-11-20T06:00:31.695Z,3.60
2018-11-20T06:06:10.885Z,3.50
2018-11-20T06:09:06.559Z,3.60
2018-11-20T06:11:59.304Z,3.60
2018-11-20T06:14:44.825Z,3.60
2018-11-20T06:17:34.272Z,3.60
2018-11-20T06:20:21.078Z,3.60
2018-11-20T06:23:06.349Z,3.50
2018-11-20T06:28:47.667Z,3.50
2018-11-20T06:31:41.841Z,3.50
2018-11-20T06:37:22.772Z,3.50
2018-11-20T06:40:03.490Z,3.60
2018-11-20T06:42:48.859Z,3.60
2018-11-20T06:45:38.675Z,3.60
2018-11-20T06:51:20.757Z,3.60
2018-11-20T06:54:19.768Z,3.50
2018-11-20T06:57:05.466Z,3.50
2018-11-20T07:00:01.246Z,3.50
2018-11-20T07:05:40.447Z,3.60
2018-11-20T07:08:30.335Z,3.60
2018-11-20T07:11:29.751Z,3.50
2018-11-20T07:14:39.946Z,3.60
2018-11-20T07:17:33.745Z,3.60
2018-11-20T07:20:19.618Z,3.60
2018-11-20T07:25:58.929Z,3.50
2018-11-20T07:28:54.954Z,3.60
2018-11-20T07:31:41.009Z,3.60
2018-11-20T07:34:27.592Z,3.60
2018-11-20T07:37:13.257Z,3.60
2018-11-20T07:42:48.111Z,3.70
2018-11-20T07:45:34.129Z,3.70
2018-11-20T07:48:19.561Z,3.60
2018-11-20T07:53:57.561Z,3.70
2018-11-20T07:56:50.069Z,3.70
2018-11-20T07:59:35.423Z,3.60
2018-11-20T08:02:28.346Z,3.70
2018-11-20T08:05:24.114Z,3.70
2018-11-20T08:08:10.979Z,3.70
2018-11-20T08:13:43.548Z,3.80
2018-11-20T08:16:36.261Z,3.80
2018-11-20T08:19:25.810Z,3.80
2018-11-20T08:22:12.690Z,3.90
2018-11-20T08:28:00.465Z,3.90
2018-11-20T08:30:47.410Z,3.90
2018-11-20T08:33:49.559Z,3.90
2018-11-20T08:36:41.872Z,3.90
2018-11-20T08:42:49.109Z,3.90
2018-11-20T08:45:26.874Z,4.00
2018-11-20T08:48:17.257Z,4.00
2018-11-20T08:51:12.920Z,4.00
2018-11-20T08:59:49.624Z,3.90
2018-11-20T09:08:17.505Z,4.00
2018-11-20T09:11:03.082Z,4.00
2018-11-20T09:13:43.812Z,4.10
2018-11-20T09:19:29.478Z,4.10
2018-11-20T09:22:15.054Z,4.20
2018-11-20T09:25:13.665Z,4.20
2018-11-20T09:33:30.409Z,4.30
2018-11-20T09:36:19.874Z,4.30
2018-11-20T09:39:09.587Z,4.30
2018-11-20T09:44:49.866Z,4.30
2018-11-20T09:47:35.410Z,4.30
2018-11-20T09:50:19.795Z,4.40
2018-11-20T09:53:21.569Z,4.40
2018-11-20T09:56:08.523Z,4.40
2018-11-20T09:58:54.603Z,4.40
2018-11-20T10:04:13.318Z,4.50
2018-11-20T10:07:00.224Z,4.50
2018-11-20T10:12:43.434Z,4.50
2018-11-20T10:18:10.134Z,4.50
2018-11-20T10:20:59.729Z,4.60
2018-11-20T10:23:49.611Z,4.60
2018-11-20T10:26:41.896Z,4.60
2018-11-20T10:29:34.256Z,4.60
2018-11-20T10:32:31.011Z,4.60
2018-11-20T10:35:26.756Z,4.60
2018-11-20T10:40:57.314Z,4.60
2018-11-20T10:43:42.616Z,4.60
2018-11-20T10:49:06.688Z,4.60
2018-11-20T10:51:55.967Z,4.60
2018-11-20T10:54:46.410Z,4.60
2018-11-20T10:57:42.250Z,4.60
2018-11-20T11:00:28.287Z,4.60
2018-11-20T11:03:13.738Z,4.70
2018-11-20T11:06:18.892Z,4.80
2018-11-20T11:09:22.056Z,4.80
2018-11-20T11:12:27.143Z,4.70
2018-11-20T11:15:23.090Z,4.80
2018-11-20T11:18:28.261Z,4.80
2018-11-20T11:21:14.985Z,4.80
2018-11-20T11:24:01.807Z,4.80
2018-11-20T11:26:51.727Z,4.80
2018-11-20T11:29:44.381Z,4.80
2018-11-20T11:32:43.182Z,4.80
2018-11-20T11:35:34.422Z,4.90
2018-11-20T11:38:23.984Z,4.90
2018-11-20T11:41:23.196Z,4.90
2018-11-20T11:44:12.881Z,5.00
2018-11-20T11:46:58.615Z,5.00
2018-11-20T11:49:44.021Z,5.10
2018-11-20T11:52:30.825Z,5.10
2018-11-20T11:55:13.705Z,5.10
2018-11-20T11:58:00.001Z,5.10
2018-11-20T12:00:46.537Z,5.10
2018-11-20T12:06:30.664Z,4.90
2018-11-20T12:09:17.048Z,4.90
2018-11-20T12:12:06.578Z,4.90
2018-11-20T12:14:52.148Z,4.90
2018-11-20T12:17:39.013Z,5.00
2018-11-20T12:20:24.428Z,5.10
2018-11-20T12:23:02.151Z,5.00
2018-11-20T12:25:53.948Z,5.00
2018-11-20T12:28:39.274Z,5.00
2018-11-20T12:31:24.635Z,5.00
2018-11-20T12:34:10.014Z,5.00
2018-11-20T12:36:55.243Z,5.10
2018-11-20T12:39:44.713Z,5.10
2018-11-20T12:45:25.851Z,5.00
2018-11-20T12:48:11.521Z,4.90
2018-11-20T12:51:05.492Z,5.00
2018-11-20T12:53:49.762Z,4.90
2018-11-20T12:56:35.681Z,5.00
2018-11-20T12:59:21.261Z,4.90
2018-11-20T13:02:06.991Z,4.80
2018-11-20T13:04:52.306Z,4.90
2018-11-20T13:07:37.633Z,4.90
2018-11-20T13:10:24.041Z,4.90
2018-11-20T13:16:15.291Z,4.90
2018-11-20T13:19:02.116Z,4.80
2018-11-20T13:21:58.481Z,4.80
2018-11-20T13:24:41.714Z,4.80
2018-11-20T13:27:43.445Z,4.80
2018-11-20T13:30:29.113Z,4.80
2018-11-20T13:36:08.200Z,4.80
2018-11-20T13:39:03.756Z,4.80
2018-11-20T13:45:01.843Z,4.90
2018-11-20T13:47:52.203Z,5.00
2018-11-20T13:53:55.265Z,5.10
2018-11-20T13:56:30.310Z,5.00
2018-11-20T13:59:15.685Z,5.00
2018-11-20T14:02:01.040Z,5.00
2018-11-20T14:07:55.773Z,5.00
2018-11-20T14:13:25.188Z,4.90
2018-11-20T14:16:10.456Z,4.90
2018-11-20T14:24:47.679Z,4.80
2018-11-20T14:27:34.748Z,4.80
2018-11-20T14:30:27.717Z,4.80
2018-11-20T14:33:21.036Z,4.80
2018-11-20T14:36:06.869Z,4.70
2018-11-20T14:41:37.377Z,4.70
2018-11-20T14:44:21.282Z,4.60
2018-11-20T14:47:07.804Z,4.60
2018-11-20T14:49:53.224Z,4.60
2018-11-20T14:52:33.328Z,4.60
2018-11-20T14:55:19.053Z,4.60
2018-11-20T14:58:04.921Z,4.70
2018-11-20T15:03:53.560Z,4.70
2018-11-20T15:06:46.571Z,4.70
2018-11-20T15:21:17.528Z,4.70
2018-11-20T15:30:01.939Z,4.60
2018-11-20T15:32:47.635Z,4.60
2018-11-20T15:38:28.902Z,4.60
2018-11-20T15:41:15.741Z,4.50
2018-11-20T15:44:08.449Z,4.50
2018-11-20T15:46:54.175Z,4.50
2018-11-20T15:49:35.175Z,4.40
2018-11-20T15:52:25.877Z,4.40
2018-11-20T15:55:24.020Z,4.40
2018-11-20T15:58:13.885Z,4.30
2018-11-20T16:00:59.366Z,4.30
2018-11-20T16:03:56.605Z,4.30
2018-11-20T16:06:43.432Z,4.30
2018-11-20T16:09:33.135Z,4.30
2018-11-20T16:12:28.644Z,4.30
2018-11-20T16:15:15.569Z,4.30
2018-11-20T16:18:17.566Z,4.20
2018-11-20T16:24:12.116Z,4.20
2018-11-20T16:29:56.421Z,4.10
2018-11-20T16:35:38.905Z,4.00
2018-11-20T16:44:04.659Z,3.90
2018-11-20T16:46:50.312Z,3.90
2018-11-20T16:52:39.158Z,3.80
2018-11-20T16:58:14.844Z,3.70
2018-11-20T17:00:51.397Z,3.70
2018-11-20T17:03:47.513Z,3.70
2018-11-20T17:06:33.047Z,3.60
2018-11-20T17:09:34.956Z,3.60
2018-11-20T17:12:30.741Z,3.60
2018-11-20T17:15:20.474Z,3.60
2018-11-20T17:17:58.161Z,3.50
2018-11-20T17:20:43.957Z,3.60
2018-11-20T17:23:29.191Z,3.50
2018-11-20T17:26:15.400Z,3.50
2018-11-20T17:29:05.090Z,3.40
2018-11-20T17:34:43.615Z,3.40
2018-11-20T17:37:33.596Z,3.30
2018-11-20T17:40:21.068Z,3.40
2018-11-20T17:43:04.833Z,3.30
2018-11-20T17:45:54.283Z,3.30
2018-11-20T17:54:20.892Z,3.30
2018-11-20T17:57:06.693Z,3.30
2018-11-20T17:59:47.358Z,3.30
2018-11-20T18:05:31.561Z,3.30
2018-11-20T18:08:16.829Z,3.30
2018-11-20T18:11:02.052Z,3.30
2018-11-20T18:14:01.813Z,3.30
2018-11-20T18:16:43.123Z,3.30
2018-11-20T18:19:31.534Z,3.30
2018-11-20T18:22:23.957Z,3.30
2018-11-20T18:25:19.934Z,3.20
2018-11-20T18:31:06.047Z,3.20
2018-11-20T18:34:08.260Z,3.30
2018-11-20T18:40:00.543Z,3.30
2018-11-20T18:45:39.374Z,3.30
2018-11-20T18:48:44.559Z,3.30
2018-11-20T18:51:43.572Z,3.30
2018-11-20T18:57:20.260Z,3.30
2018-11-20T19:00:06.264Z,3.30
2018-11-20T19:05:50.941Z,3.30
2018-11-20T19:08:26.335Z,3.30
2018-11-20T19:11:12.419Z,3.30
2018-11-20T19:13:58.029Z,3.30
2018-11-20T19:16:50.775Z,3.30
2018-11-20T19:22:19.420Z,3.30
2018-11-20T19:25:06.409Z,3.30
2018-11-20T19:28:03.319Z,3.30
2018-11-20T19:30:55.021Z,3.30
2018-11-20T19:39:26.712Z,3.30
2018-11-20T19:42:10.960Z,3.30
2018-11-20T19:45:10.553Z,3.30
2018-11-20T19:47:57.623Z,3.30
2018-11-20T19:50:44.494Z,3.30
2018-11-20T19:53:41.121Z,4.70
2018-11-20T19:56:40.172Z,3.30
2018-11-20T19:59:42.295Z,3.30
2018-11-20T20:02:27.575Z,3.40
2018-11-20T20:05:17.183Z,3.40
2018-11-20T20:10:52.540Z,3.50
2018-11-20T20:13:51.078Z,3.40
2018-11-20T20:16:31.158Z,3.40
2018-11-20T20:19:10.572Z,3.50
2018-11-20T20:21:56.449Z,3.50
2018-11-20T20:24:42.079Z,3.40
2018-11-20T20:27:30.526Z,3.50
2018-11-20T20:30:26.486Z,3.50
2018-11-20T20:33:20.797Z,3.50
2018-11-20T20:36:10.059Z,3.40
2018-11-20T20:38:55.428Z,3.40
2018-11-20T20:41:54.365Z,3.40
2018-11-20T20:44:44.069Z,3.40
2018-11-20T20:47:46.606Z,3.40
2018-11-20T20:50:25.599Z,3.40
2018-11-20T20:53:24.885Z,3.30
2018-11-20T21:01:39.959Z,3.10
2018-11-20T21:07:31.432Z,2.90
2018-11-20T21:10:16.953Z,2.80
2018-11-20T21:13:02.549Z,2.60
2018-11-20T21:18:48.024Z,2.40
2018-11-20T21:24:19.282Z,2.10
2018-11-20T21:27:12.089Z,2.00
2018-11-20T21:30:05.067Z,1.90
2018-11-20T21:32:50.459Z,1.90
2018-11-20T21:38:28.952Z,1.80
2018-11-20T21:41:15.917Z,1.70
2018-11-20T21:44:18.238Z,1.80
2018-11-20T21:47:03.967Z,1.80
2018-11-20T21:49:53.608Z,1.80
2018-11-20T21:52:46.370Z,1.80
2018-11-20T21:58:33.435Z,1.90
2018-11-20T22:01:21.403Z,1.90
2018-11-20T22:04:06.889Z,1.90
2018-11-20T22:09:48.114Z,1.90
2018-11-20T22:12:34.111Z,1.90
2018-11-20T22:18:11.998Z,2.00
2018-11-20T22:21:01.601Z,2.10
2018-11-20T22:26:35.347Z,2.20
2018-11-20T22:29:22.183Z,2.30
2018-11-20T22:32:07.877Z,2.30
2018-11-20T22:35:03.410Z,2.40
2018-11-20T22:40:35.504Z,2.40
2018-11-20T22:43:21.095Z,2.50
2018-11-20T22:46:22.849Z,2.50
2018-11-20T22:49:01.946Z,2.50
2018-11-20T22:51:36.436Z,2.50
2018-11-20T22:54:36.213Z,2.50
2018-11-20T22:57:26.111Z,2.50
2018-11-20T23:02:58.462Z,2.50
2018-11-20T23:08:18.303Z,2.60
2018-11-20T23:10:45.552Z,2.60
2018-11-20T23:13:12.883Z,2.60
2018-11-20T23:15:40.152Z,2.60
2018-11-20T23:18:07.386Z,2.60
2018-11-20T23:20:34.741Z,2.60
2018-11-20T23:23:02.043Z,2.60
2018-11-20T23:25:29.300Z,2.60
2018-11-20T23:27:56.538Z,2.60
2018-11-20T23:30:23.770Z,2.60
2018-11-20T23:32:51.075Z,2.60
2018-11-20T23:35:18.305Z,2.60
2018-11-20T23:37:45.541Z,2.60
2018-11-20T23:40:13.406Z,2.60
2018-11-20T23:42:40.620Z,2.50
2018-11-20T23:50:04.775Z,2.50
2018-11-20T23:52:32.008Z,2.50
2018-11-20T23:54:59.349Z,2.50
2018-11-20T23:57:27.884Z,2.50
2018-11-20T23:59:55.089Z,2.50
